Time;durP1;ratioP1;P1;durP2;ratioP2;P2;SDS_P1;SDS_P2;PMS_P1;PMS_P2;Temp;Humidity;BMP_temperature;BMP_pressure;BME280_temperature;BME280_humidity;BME280_pressure;Samples;Min_cycle;Max_cycle;Signal;HPM_P1;HPM_P2
2022/01/10 00:01:29;;;;;;;13.77;8.50;;;20.70;49.90;;;;;;4972563;28;20023;-79
2022/01/10 00:03:55;;;;;;;13.00;8.40;;;20.70;50.10;;;;;;4971115;28;20045;-79
2022/01/10 00:06:20;;;;;;;11.88;7.60;;;20.70;50.20;;;;;;4971150;28;20090;-79
2022/01/10 00:08:46;;;;;;;20.25;8.85;;;20.70;50.10;;;;;;4971973;28;20475;-79
2022/01/10 00:11:12;;;;;;;14.23;8.45;;;20.70;51.30;;;;;;4972200;28;20029;-80
2022/01/10 00:13:37;;;;;;;15.90;8.23;;;20.70;50.60;;;;;;4974776;28;20042;-79
2022/01/10 00:16:03;;;;;;;17.48;7.10;;;20.70;51.80;;;;;;4974825;28;20026;-84
2022/01/10 00:18:29;;;;;;;14.10;7.97;;;20.70;51.80;;;;;;4958773;28;20031;-80
2022/01/10 00:20:55;;;;;;;19.73;8.02;;;20.70;51.20;;;;;;4974212;28;20038;-81
2022/01/10 00:23:20;;;;;;;19.17;7.85;;;20.80;52.20;;;;;;4942514;28;20050;-76
2022/01/10 00:25:46;;;;;;;29.20;8.10;;;20.70;51.70;;;;;;4975779;28;20049;-80
2022/01/10 00:28:12;;;;;;;25.75;8.07;;;20.70;52.00;;;;;;4977625;28;20026;-91
2022/01/10 00:30:37;;;;;;;28.67;7.65;;;20.70;52.10;;;;;;4961059;28;20141;-81
2022/01/10 00:33:06;;;;;;;19.63;8.85;;;20.70;51.90;;;;;;4959669;28;20053;-85
2022/01/10 00:35:32;;;;;;;23.90;8.18;;;20.80;51.80;;;;;;4976620;28;20034;-90
2022/01/10 00:37:57;;;;;;;16.27;7.50;;;20.80;51.80;;;;;;4975998;28;20037;-89
2022/01/10 00:40:23;;;;;;;16.17;7.50;;;20.80;51.80;;;;;;4927722;28;20043;-88
2022/01/10 00:42:57;;;;;;;20.63;7.65;;;20.70;51.70;;;;;;4959550;28;20052;-89
2022/01/10 00:45:28;;;;;;;12.48;7.10;;;20.70;52.30;;;;;;4946444;29;20027;-89
2022/01/10 00:47:56;;;;;;;18.90;7.60;;;20.80;52.20;;;;;;4955927;29;20483;-91
2022/01/10 00:50:24;;;;;;;14.30;6.90;;;20.80;51.80;;;;;;4940546;29;20031;-92
2022/01/10 00:52:51;;;;;;;14.95;7.55;;;20.80;51.70;;;;;;4937103;29;20490;-89
2022/01/10 00:55:17;;;;;;;12.15;6.90;;;20.80;51.60;;;;;;4936229;29;20040;-90
2022/01/10 00:57:43;;;;;;;15.77;7.30;;;20.80;51.60;;;;;;4937148;29;20035;-89
2022/01/10 01:00:13;;;;;;;14.48;7.35;;;20.80;51.60;;;;;;4920201;29;20032;-89
2022/01/10 01:02:39;;;;;;;15.18;6.85;;;20.80;51.70;;;;;;4936375;29;20035;-88
2022/01/10 01:05:08;;;;;;;13.60;7.10;;;20.90;51.70;;;;;;4921401;29;20503;-89
2022/01/10 01:07:38;;;;;;;12.18;6.95;;;20.90;51.70;;;;;;4937169;29;20032;-89
2022/01/10 01:10:32;;;;;;;13.20;7.28;;;20.80;51.70;;;;;;4920556;29;20633;-89
2022/01/10 01:24:07;;;;;;;14.80;7.07;;;20.90;51.80;;;;;;5343380;23;20001;-81
2022/01/10 01:26:45;;;;;;;43.15;28.20;;;20.80;52.00;;;;;;4965814;28;20438;-80
2022/01/10 01:29:17;;;;;;;42.55;27.95;;;20.60;48.60;;;;;;4973604;28;20542;-95
2022/01/10 01:31:43;;;;;;;41.25;26.85;;;20.40;47.00;;;;;;4986034;28;20083;-93
2022/01/10 01:41:10;;;;;;;32.20;19.17;;;20.50;49.60;;;;;;5348481;23;20146;-93
2022/01/10 01:45:10;;;;;;;29.85;21.13;;;20.50;49.40;;;;;;4938173;29;20051;-93
2022/01/10 01:47:45;;;;;;;29.17;20.50;;;20.60;49.20;;;;;;4907013;29;20036;-89
2022/01/10 01:50:53;;;;;;;31.00;18.70;;;20.60;48.90;;;;;;4938349;29;20515;-92
2022/01/10 01:53:22;;;;;;;27.60;18.90;;;20.60;49.00;;;;;;5319763;23;21990;-89
2022/01/10 02:00:13;;;;;;;28.73;18.67;;;20.70;49.00;;;;;;4939344;29;20034;-90
2022/01/10 02:02:48;;;;;;;27.45;18.83;;;20.70;49.20;;;;;;4929856;29;20066;-87
2022/01/10 02:05:14;;;;;;;28.58;19.38;;;20.70;49.30;;;;;;4934546;29;20027;-88
2022/01/10 02:07:40;;;;;;;27.30;18.58;;;20.70;49.40;;;;;;4920208;29;20042;-87
2022/01/10 02:10:07;;;;;;;25.83;17.98;;;20.70;49.40;;;;;;4918893;29;20079;-87
2022/01/10 02:12:33;;;;;;;26.02;17.73;;;20.70;49.70;;;;;;4934918;29;20078;-89
2022/01/10 02:15:00;;;;;;;26.27;17.77;;;20.70;49.50;;;;;;4935571;29;20035;-91
2022/01/10 02:17:34;;;;;;;27.55;18.05;;;20.70;49.80;;;;;;4921558;29;20027;-92
2022/01/10 02:20:07;;;;;;;23.92;16.77;;;20.70;50.10;;;;;;4904898;29;20036;-89
2022/01/10 02:22:36;;;;;;;28.85;17.25;;;20.70;50.00;;;;;;4920065;29;20396;-90
2022/01/10 02:25:27;;;;;;;25.20;16.63;;;20.70;50.30;;;;;;4939635;29;20055;-89
2022/01/10 02:27:54;;;;;;;28.05;16.98;;;20.80;50.40;;;;;;4937618;29;20087;-92
2022/01/10 02:30:20;;;;;;;28.88;16.98;;;20.70;50.40;;;;;;4920851;29;20439;-85
2022/01/10 02:32:46;;;;;;;27.42;16.83;;;20.80;50.60;;;;;;4936854;29;20111;-92
2022/01/10 02:35:24;;;;;;;24.63;16.17;;;20.80;50.40;;;;;;4920175;29;20046;-92
2022/01/10 02:37:52;;;;;;;25.00;16.05;;;20.70;50.20;;;;;;4936674;29;20067;-90
2022/01/10 02:40:20;;;;;;;27.73;16.38;;;20.70;50.40;;;;;;4936337;29;20051;-91
2022/01/10 02:42:47;;;;;;;25.80;16.50;;;20.70;50.60;;;;;;4935969;29;20027;-91
2022/01/10 02:45:13;;;;;;;24.10;15.55;;;20.70;50.60;;;;;;4920692;29;20071;-91
2022/01/10 02:47:39;;;;;;;28.02;15.18;;;20.70;50.60;;;;;;4920724;29;20062;-90
2022/01/10 02:50:05;;;;;;;23.70;15.63;;;20.70;50.70;;;;;;4919753;29;20039;-90
2022/01/10 02:53:42;;;;;;;;;;;;;;;;;;;;;
2022/01/10 02:56:52;;;;;;;25.35;15.27;;;20.70;50.80;;;;;;4957515;28;20039;-90
2022/01/10 02:59:25;;;;;;;22.45;14.75;;;20.70;50.90;;;;;;4938945;29;20130;-90
2022/01/10 03:01:51;;;;;;;22.70;14.32;;;20.70;50.80;;;;;;4923599;29;20054;-90
2022/01/10 03:04:20;;;;;;;22.83;14.13;;;20.70;50.90;;;;;;4950130;23;20036;-90
2022/01/10 03:07:14;;;;;;;21.98;14.60;;;20.70;51.00;;;;;;4943682;29;20035;-91
2022/01/10 03:10:36;;;;;;;23.98;14.95;;;20.70;51.00;;;;;;4936434;29;20546;-91
2022/01/10 03:13:35;;;;;;;23.35;13.95;;;20.70;51.00;;;;;;4902295;29;20035;-91
2022/01/10 03:25:40;;;;;;;18.98;12.43;;;20.70;51.00;;;;;;5633563;23;20078;-92
2022/01/10 03:28:13;;;;;;;19.52;13.13;;;20.70;51.20;;;;;;4935058;29;20031;-91
2022/01/10 03:37:42;;;;;;;20.02;12.82;;;20.70;51.10;;;;;;5692039;23;20058;-90
2022/01/10 03:40:13;;;;;;;18.70;12.30;;;20.70;51.40;;;;;;4930432;29;20035;-89
2022/01/10 03:42:39;;;;;;;28.67;13.17;;;20.70;51.20;;;;;;4938344;29;20050;-90
2022/01/10 03:45:06;;;;;;;19.63;12.18;;;20.70;51.40;;;;;;4937889;29;20664;-90
2022/01/10 03:47:35;;;;;;;19.58;13.18;;;20.70;51.30;;;;;;4942101;29;20053;-90
2022/01/10 03:50:13;;;;;;;20.48;12.30;;;20.70;51.50;;;;;;4927020;29;20157;-92
2022/01/10 03:52:45;;;;;;;17.58;11.93;;;20.70;51.40;;;;;;4943215;29;20035;-90
2022/01/10 03:55:11;;;;;;;23.67;12.77;;;20.70;51.70;;;;;;4942174;29;20035;-89
2022/01/10 03:57:40;;;;;;;18.73;11.93;;;20.70;51.60;;;;;;4942302;29;20039;-90
2022/01/10 04:00:15;;;;;;;19.10;11.65;;;20.70;51.30;;;;;;4928020;29;20036;-90
2022/01/10 04:05:34;;;;;;;20.98;12.25;;;20.70;51.70;;;;;;4938371;29;20307;-92
2022/01/10 04:08:35;;;;;;;19.10;12.50;;;20.70;51.70;;;;;;4912886;29;20028;-90
2022/01/10 04:11:01;;;;;;;;;;;20.70;51.60;;;;;;4923808;29;20083;-90
2022/01/10 04:13:28;;;;;;;19.02;11.85;;;20.70;51.60;;;;;;4922820;29;19911;-91
2022/01/10 04:16:14;;;;;;;18.67;11.30;;;20.70;51.80;;;;;;4923836;29;20070;-91
2022/01/10 04:18:53;;;;;;;16.38;11.40;;;20.70;51.80;;;;;;4909821;29;20039;-91
2022/01/10 04:21:22;;;;;;;19.90;12.27;;;20.70;51.80;;;;;;4907853;29;20031;-90
2022/01/10 04:23:50;;;;;;;17.40;11.50;;;20.70;52.00;;;;;;4923719;29;20035;-90
2022/01/10 05:11:39;;;;;;;;;;;;;;;;;;;;;
2022/01/10 05:14:43;;;;;;;17.25;10.60;;;20.80;52.50;;;;;;5457476;23;20530;-91
2022/01/10 05:26:17;;;;;;;16.92;9.93;;;20.80;52.50;;;;;;4860739;29;19915;-92
2022/01/10 05:28:44;;;;;;;16.13;9.35;;;20.80;52.60;;;;;;4816113;29;20033;-91
2022/01/10 05:34:43;;;;;;;13.85;8.95;;;20.80;53.30;;;;;;5649660;23;20567;-90
2022/01/10 05:37:09;;;;;;;14.90;9.25;;;20.80;52.60;;;;;;4937173;29;20055;-91
2022/01/10 05:39:35;;;;;;;15.77;9.32;;;20.80;51.90;;;;;;4921939;29;20039;-91
2022/01/10 05:45:01;;;;;;;16.33;8.95;;;20.80;52.80;;;;;;4955606;29;20054;-89
2022/01/10 05:47:29;;;;;;;15.02;9.15;;;20.80;52.20;;;;;;4923607;29;20035;-89
2022/01/10 05:50:04;;;;;;;15.32;9.43;;;20.80;52.70;;;;;;4936873;29;20040;-91
2022/01/10 05:52:46;;;;;;;15.63;8.88;;;20.80;52.70;;;;;;4921481;29;20064;-90
2022/01/10 05:55:34;;;;;;;14.32;8.85;;;20.80;52.70;;;;;;4923923;29;20039;-89
2022/01/10 06:01:54;;;;;;;14.00;9.07;;;20.90;52.70;;;;;;4936645;29;20269;-89
2022/01/10 06:04:30;;;;;;;14.20;9.20;;;20.90;52.50;;;;;;4920271;29;20548;-90
2022/01/10 06:07:25;;;;;;;14.95;9.05;;;20.90;52.70;;;;;;4906745;29;20043;-91
2022/01/10 06:10:00;;;;;;;15.73;8.73;;;20.90;52.80;;;;;;4920633;29;20031;-92
2022/01/10 06:12:42;;;;;;;14.88;8.60;;;20.90;52.50;;;;;;4906881;29;20035;-92
2022/01/10 06:28:18;;;;;;;14.48;7.82;;;20.90;53.10;;;;;;4899430;29;20060;-90
2022/01/10 06:46:51;;;;;;;13.50;7.43;;;20.90;53.10;;;;;;5091637;23;20051;-91
2022/01/10 06:58:45;;;;;;;15.18;8.32;;;20.90;52.90;;;;;;4822961;29;20046;-93
2022/01/10 07:08:30;;;;;;;13.43;7.93;;;20.90;53.30;;;;;;5154608;23;20044;-90
2022/01/10 07:11:03;;;;;;;12.52;7.78;;;20.90;53.30;;;;;;4930003;29;20069;-90
2022/01/10 07:14:12;;;;;;;12.05;7.35;;;20.90;53.30;;;;;;4936838;29;20476;-90
2022/01/10 07:43:49;;;;;;;13.88;7.28;;;20.90;53.40;;;;;;5413586;23;20050;-91
2022/01/10 07:51:58;;;;;;;;;;;;;;;;;;;;;
2022/01/10 07:59:02;;;;;;;12.27;6.93;;;20.90;53.30;;;;;;4951105;29;20164;-85
2022/01/10 08:01:28;;;;;;;16.70;6.88;;;20.90;53.50;;;;;;4952966;29;20134;-85
2022/01/10 08:03:54;;;;;;;20.23;6.38;;;20.80;51.10;;;;;;4952446;28;20113;-84
2022/01/10 08:06:21;;;;;;;19.90;6.22;;;20.50;46.50;;;;;;4953913;29;20053;-84
2022/01/10 08:08:47;;;;;;;16.88;6.28;;;20.20;44.60;;;;;;4952202;29;20035;-84
2022/01/10 08:11:13;;;;;;;17.73;6.20;;;20.00;43.70;;;;;;4953894;29;20118;-81
2022/01/10 08:13:40;;;;;;;15.05;5.70;;;19.90;45.40;;;;;;4952001;28;20126;-87
2022/01/10 08:16:05;;;;;;;17.60;6.25;;;19.90;44.60;;;;;;4952470;29;20046;-87
2022/01/10 08:18:33;;;;;;;17.92;7.25;;;20.10;50.20;;;;;;4920493;29;20475;-87
2022/01/10 08:20:59;;;;;;;18.73;7.35;;;20.30;51.50;;;;;;4920395;29;20039;-84
2022/01/10 08:23:25;;;;;;;18.58;7.93;;;20.50;52.40;;;;;;4931665;29;20031;-87
2022/01/10 08:25:50;;;;;;;18.63;6.30;;;20.60;53.80;;;;;;4952271;29;20034;-88
2022/01/10 08:28:16;;;;;;;37.17;22.15;;;20.70;52.30;;;;;;4921106;29;20023;-88
2022/01/10 08:30:42;;;;;;;34.28;20.40;;;20.50;46.30;;;;;;4936117;29;20058;-86
2022/01/10 08:33:07;;;;;;;25.67;14.27;;;20.20;43.90;;;;;;4953499;28;20028;-91
2022/01/10 08:35:33;;;;;;;30.77;15.02;;;20.20;48.20;;;;;;4925776;29;20046;-91
2022/01/10 08:37:59;;;;;;;31.98;15.55;;;20.40;49.10;;;;;;4941019;29;20093;-88
2022/01/10 08:40:25;;;;;;;27.35;13.77;;;20.50;47.70;;;;;;4957930;29;20038;-76
2022/01/10 08:42:51;;;;;;;31.35;14.70;;;20.60;47.30;;;;;;4958166;28;20027;-80
2022/01/10 08:45:17;;;;;;;29.67;13.68;;;20.70;46.90;;;;;;4957601;28;20476;-91
2022/01/10 08:47:46;;;;;;;26.48;13.60;;;20.70;47.00;;;;;;4958394;29;20027;-94
2022/01/10 08:50:12;;;;;;;27.98;13.07;;;20.80;46.60;;;;;;4957770;29;20038;-88
2022/01/10 08:52:39;;;;;;;23.13;12.25;;;20.80;47.10;;;;;;4956843;28;20025;-92
2022/01/10 08:55:08;;;;;;;29.02;12.82;;;20.80;47.00;;;;;;4958521;28;20038;-94
2022/01/10 08:57:34;;;;;;;25.90;11.65;;;20.90;47.80;;;;;;4943084;29;20114;-94
2022/01/10 09:00:03;;;;;;;23.40;11.82;;;20.90;47.40;;;;;;4926625;29;20086;-93
2022/01/10 09:35:36;;;;;;;19.47;11.33;;;21.00;48.90;;;;;;5688668;23;20311;-82
2022/01/10 09:38:12;;;;;;;;;;;21.00;49.50;;;;;;4947586;28;20028;-82
2022/01/10 09:40:39;;;;;;;23.30;11.68;;;21.00;49.20;;;;;;4955513;28;20400;-83
2022/01/10 09:43:08;;;;;;;27.58;11.00;;;21.00;49.30;;;;;;4954400;28;20062;-82
2022/01/10 09:45:36;;;;;;;21.05;10.57;;;21.00;49.50;;;;;;4955022;29;20028;-82
2022/01/10 09:48:05;;;;;;;22.67;10.93;;;21.00;49.60;;;;;;4952782;29;20392;-81
2022/01/10 09:50:37;;;;;;;23.20;10.25;;;21.00;49.70;;;;;;4953114;29;20039;-82
2022/01/10 09:53:04;;;;;;;24.60;10.68;;;21.00;49.80;;;;;;4954706;28;20035;-83
2022/01/10 09:55:34;;;;;;;24.25;10.82;;;21.00;49.90;;;;;;4922725;29;20027;-83
2022/01/10 09:58:03;;;;;;;;;;;21.00;50.00;;;;;;4954779;29;20480;-82
2022/01/10 10:00:33;;;;;;;23.63;10.80;;;21.00;50.00;;;;;;4953959;28;19911;-82
2022/01/10 10:03:06;;;;;;;25.13;10.45;;;21.00;50.10;;;;;;4938195;29;20655;-81
2022/01/10 10:05:34;;;;;;;;;;;21.00;50.30;;;;;;4955226;28;20511;-80
2022/01/10 10:08:05;;;;;;;17.75;10.20;;;21.10;50.40;;;;;;4954689;28;20355;-78
2022/01/10 10:10:45;;;;;;;23.10;10.18;;;21.10;50.50;;;;;;4954129;28;20027;-75
2022/01/10 10:13:15;;;;;;;17.92;9.82;;;21.10;50.40;;;;;;4937620;29;20039;-82
2022/01/10 10:15:45;;;;;;;18.20;9.73;;;21.10;50.40;;;;;;4954172;28;20089;-77
2022/01/10 10:18:14;;;;;;;18.80;10.07;;;21.00;50.40;;;;;;4950427;28;20054;-79
2022/01/10 10:20:46;;;;;;;21.13;9.80;;;20.90;50.50;;;;;;4932963;29;20098;-80
2022/01/10 10:23:18;;;;;;;18.40;10.35;;;20.90;50.20;;;;;;4933853;29;20544;-80
2022/01/10 10:25:50;;;;;;;19.02;8.98;;;20.90;49.90;;;;;;4918364;29;20027;-80
2022/01/10 10:28:19;;;;;;;21.35;9.73;;;20.90;50.10;;;;;;4935243;29;20031;-80
2022/01/10 10:30:46;;;;;;;20.33;9.50;;;20.90;49.90;;;;;;4934892;29;20103;-81
2022/01/10 10:33:23;;;;;;;19.60;9.45;;;21.00;50.40;;;;;;4934858;29;20512;-78
2022/01/10 10:35:58;;;;;;;21.05;8.98;;;21.00;50.60;;;;;;4933685;29;20039;-78
2022/01/10 10:38:27;;;;;;;16.83;9.05;;;21.00;52.70;;;;;;4933985;29;20086;-77
2022/01/10 10:40:53;;;;;;;20.58;9.60;;;21.00;52.50;;;;;;4934738;29;20043;-79
2022/01/10 10:43:19;;;;;;;17.17;8.90;;;21.00;53.10;;;;;;4934869;29;20047;-81
2022/01/10 10:45:48;;;;;;;22.90;9.73;;;21.10;53.80;;;;;;4933673;29;20159;-80
2022/01/10 10:48:16;;;;;;;21.77;9.95;;;21.00;53.80;;;;;;4934077;29;20024;-81
2022/01/10 10:50:45;;;;;;;19.17;8.70;;;21.10;54.10;;;;;;4933254;29;20063;-81
2022/01/10 10:53:13;;;;;;;20.63;8.55;;;21.10;54.10;;;;;;4933512;29;20032;-81
2022/01/10 10:55:45;;;;;;;20.88;8.82;;;21.10;54.30;;;;;;4917805;29;20031;-80
2022/01/10 10:58:12;;;;;;;15.75;8.10;;;21.10;55.40;;;;;;4933435;29;20071;-80
2022/01/10 11:00:38;;;;;;;20.15;8.43;;;21.20;56.10;;;;;;4934321;29;20027;-80
2022/01/10 11:03:05;;;;;;;20.15;8.38;;;21.10;56.00;;;;;;4934741;29;20484;-80
2022/01/10 11:05:33;;;;;;;18.80;8.30;;;21.10;56.40;;;;;;4933523;29;20044;-79
2022/01/10 11:07:59;;;;;;;21.00;8.60;;;21.20;55.80;;;;;;4933410;29;20036;-81
2022/01/10 11:10:25;;;;;;;17.85;8.57;;;21.10;56.70;;;;;;4934298;29;20504;-78
2022/01/10 11:12:56;;;;;;;17.17;8.60;;;21.10;56.40;;;;;;4918171;29;20127;-80
2022/01/10 11:15:23;;;;;;;16.52;8.48;;;21.20;57.10;;;;;;4933262;29;20106;-80
2022/01/10 11:17:51;;;;;;;16.40;7.88;;;21.20;57.20;;;;;;4934604;29;20078;-79
2022/01/10 11:20:23;;;;;;;16.10;8.45;;;21.20;57.40;;;;;;4932882;29;20052;-80
2022/01/10 11:22:51;;;;;;;17.02;8.15;;;21.20;57.40;;;;;;4917747;29;20119;-80
2022/01/10 11:25:34;;;;;;;16.23;7.85;;;21.20;57.00;;;;;;4934116;29;20543;-79
2022/01/10 11:28:15;;;;;;;16.63;7.63;;;21.30;57.20;;;;;;4934407;29;20035;-80
2022/01/10 11:30:45;;;;;;;16.02;8.18;;;21.20;57.70;;;;;;4940993;29;20547;-80
2022/01/10 11:33:23;;;;;;;16.23;8.10;;;21.30;57.60;;;;;;4951590;29;20035;-80
2022/01/10 11:35:51;;;;;;;17.00;7.75;;;21.30;58.20;;;;;;4936293;29;20051;-80
2022/01/10 11:38:21;;;;;;;16.85;8.27;;;21.30;58.00;;;;;;4953621;28;20039;-80
2022/01/10 11:40:53;;;;;;;16.90;8.15;;;21.30;57.30;;;;;;4953139;28;20028;-78
2022/01/10 11:43:44;;;;;;;23.63;9.35;;;21.30;58.10;;;;;;4953513;28;20071;-76
2022/01/10 11:46:36;;;;;;;19.10;8.65;;;21.10;58.60;;;;;;4953266;28;20106;-77
2022/01/10 11:49:03;;;;;;;19.60;9.63;;;21.10;60.00;;;;;;4952984;28;20098;-77
2022/01/10 11:51:34;;;;;;;18.77;10.07;;;21.10;58.00;;;;;;4953188;28;20031;-78
2022/01/10 11:54:10;;;;;;;18.52;9.90;;;21.10;56.60;;;;;;4953438;28;20074;-77
2022/01/10 11:56:41;;;;;;;19.73;9.65;;;21.10;55.80;;;;;;4952980;28;20580;-77
2022/01/10 11:59:39;;;;;;;21.27;10.63;;;21.20;55.80;;;;;;4953131;28;20031;-76
2022/01/10 12:02:10;;;;;;;16.92;8.93;;;21.20;56.00;;;;;;4930676;28;20031;-75
2022/01/10 12:04:36;;;;;;;18.63;9.35;;;21.20;56.40;;;;;;4953098;28;20035;-76
2022/01/10 12:07:04;;;;;;;22.52;9.40;;;21.20;56.40;;;;;;4950740;28;20034;-81
2022/01/10 12:09:30;;;;;;;19.55;8.75;;;21.20;56.60;;;;;;4916972;29;20039;-78
2022/01/10 12:11:58;;;;;;;16.50;8.52;;;21.20;56.80;;;;;;4949273;29;20032;-85
2022/01/10 12:14:25;;;;;;;18.90;8.95;;;21.20;56.70;;;;;;4902340;29;20103;-76
2022/01/10 12:16:52;;;;;;;19.80;8.65;;;21.20;57.30;;;;;;4918659;29;20042;-76
2022/01/10 12:19:19;;;;;;;18.98;8.20;;;21.20;57.30;;;;;;4920424;29;20032;-78
2022/01/10 12:21:45;;;;;;;14.57;8.00;;;21.30;57.70;;;;;;4927060;29;20103;-78
2022/01/10 12:24:11;;;;;;;15.32;8.23;;;21.30;58.00;;;;;;4918152;29;20097;-78
2022/01/10 12:26:39;;;;;;;18.80;8.50;;;21.30;58.30;;;;;;4918064;29;20111;-78
2022/01/10 12:29:06;;;;;;;19.70;8.18;;;21.30;58.20;;;;;;4918127;29;20051;-78
2022/01/10 12:31:34;;;;;;;21.13;7.95;;;21.30;58.60;;;;;;4922501;29;20721;-78
2022/01/10 12:34:01;;;;;;;18.05;8.77;;;21.30;58.10;;;;;;4921387;28;20032;-78
2022/01/10 12:36:28;;;;;;;18.52;8.75;;;21.30;58.30;;;;;;4918061;29;20114;-78
2022/01/10 12:38:58;;;;;;;15.02;7.82;;;21.40;59.40;;;;;;4917911;29;20042;-78
2022/01/10 12:41:26;;;;;;;19.15;7.82;;;21.40;60.10;;;;;;4918033;29;20041;-79
2022/01/10 12:43:51;;;;;;;19.63;8.48;;;21.40;58.50;;;;;;4917733;29;20079;-80
2022/01/10 12:46:18;;;;;;;18.33;7.55;;;21.40;57.90;;;;;;4917936;29;20024;-75
2022/01/10 12:48:46;;;;;;;7.43;4.30;;;21.30;59.50;;;;;;4917323;29;20031;-74
2022/01/10 12:51:15;;;;;;;18.20;3.60;;;20.50;49.70;;;;;;4916385;29;20032;-72
2022/01/10 12:53:47;;;;;;;9.80;2.80;;;19.80;47.00;;;;;;4917586;29;20036;-74
2022/01/10 12:56:17;;;;;;;6.03;2.78;;;19.30;45.80;;;;;;4917821;29;20118;-72
2022/01/10 12:58:43;;;;;;;;;;;19.20;44.90;;;;;;4917928;29;20036;-79
2022/01/10 13:01:10;;;;;;;5.05;2.45;;;18.90;44.80;;;;;;4917519;29;20510;-77
2022/01/10 13:03:37;;;;;;;5.28;2.10;;;18.80;44.70;;;;;;4915976;29;20035;-76
2022/01/10 13:06:03;;;;;;;8.50;2.05;;;19.10;45.50;;;;;;4916459;29;20107;-77
2022/01/10 13:08:35;;;;;;;13.32;3.22;;;19.40;46.10;;;;;;4922061;29;20515;-74
2022/01/10 13:11:01;;;;;;;9.00;2.97;;;19.60;46.20;;;;;;4936567;29;20023;-77
2022/01/10 13:13:26;;;;;;;9.00;2.80;;;19.60;44.80;;;;;;4937325;29;20043;-76
2022/01/10 13:15:52;;;;;;;6.75;2.10;;;19.80;46.10;;;;;;4937425;29;20543;-76
2022/01/10 13:18:23;;;;;;;13.07;2.47;;;20.10;46.60;;;;;;4936454;29;20031;-76
2022/01/10 13:20:55;;;;;;;10.57;2.40;;;20.30;47.80;;;;;;4935636;29;20405;-79
2022/01/10 13:23:24;;;;;;;13.48;2.22;;;20.40;46.50;;;;;;4936600;29;20045;-80
2022/01/10 13:25:54;;;;;;;13.77;2.28;;;20.50;46.10;;;;;;4935342;29;20032;-80
2022/01/10 13:28:20;;;;;;;8.80;2.70;;;20.60;46.40;;;;;;4935446;29;20078;-80
2022/01/10 13:30:55;;;;;;;14.18;2.40;;;20.60;46.70;;;;;;4934898;29;20028;-80
2022/01/10 13:33:34;;;;;;;12.48;2.63;;;20.70;47.10;;;;;;4935366;29;20110;-81
2022/01/10 13:36:00;;;;;;;13.77;2.50;;;20.80;47.50;;;;;;4935048;29;20055;-81
2022/01/10 13:38:27;;;;;;;10.98;2.67;;;20.80;47.80;;;;;;4919434;29;20295;-82
2022/01/10 13:40:54;;;;;;;6.28;2.20;;;20.90;48.20;;;;;;4935618;29;20023;-82
2022/01/10 13:43:23;;;;;;;11.25;2.75;;;20.90;48.50;;;;;;4934500;29;20059;-81
2022/01/10 13:45:52;;;;;;;5.95;2.08;;;20.90;48.70;;;;;;4934632;29;20083;-81
2022/01/10 13:48:31;;;;;;;7.93;2.30;;;21.00;49.00;;;;;;4934818;29;20397;-82
2022/01/10 13:51:12;;;;;;;4.90;2.30;;;21.00;49.20;;;;;;4918684;29;20064;-81
2022/01/10 13:53:44;;;;;;;8.35;2.03;;;21.00;49.50;;;;;;4934356;29;20027;-81
2022/01/10 13:56:18;;;;;;;13.18;2.38;;;21.00;49.60;;;;;;4935628;29;20027;-81
2022/01/10 13:59:04;;;;;;;7.10;2.53;;;21.10;49.90;;;;;;4935644;29;20091;-81
2022/01/10 14:01:41;;;;;;;7.93;1.95;;;21.10;50.20;;;;;;4935565;29;20034;-81
2022/01/10 14:04:31;;;;;;;4.80;2.15;;;21.10;50.30;;;;;;4935367;29;20028;-82
2022/01/10 14:06:58;;;;;;;3.70;1.95;;;21.10;50.50;;;;;;4935519;29;20024;-82
2022/01/10 14:09:27;;;;;;;5.55;2.20;;;21.10;50.70;;;;;;4935482;29;20091;-82
2022/01/10 14:11:54;;;;;;;7.83;2.47;;;21.10;50.80;;;;;;4935401;29;20032;-82
2022/01/10 14:14:19;;;;;;;4.40;1.83;;;21.20;50.90;;;;;;4934744;29;20477;-81
2022/01/10 14:16:49;;;;;;;5.90;2.20;;;21.10;51.00;;;;;;4918409;29;20040;-82
2022/01/10 14:19:16;;;;;;;4.47;1.90;;;21.10;50.90;;;;;;4934966;29;20036;-80
2022/01/10 14:21:43;;;;;;;5.82;2.17;;;21.10;51.30;;;;;;4934095;29;20032;-80
2022/01/10 14:24:08;;;;;;;6.93;2.58;;;21.20;51.40;;;;;;4934258;29;20031;-82
2022/01/10 14:26:35;;;;;;;4.30;2.05;;;21.20;51.60;;;;;;4935286;29;20055;-81
2022/01/10 14:29:03;;;;;;;5.75;2.30;;;21.10;51.60;;;;;;4933841;29;20509;-81
2022/01/10 14:31:29;;;;;;;6.07;2.25;;;21.10;51.80;;;;;;4934367;29;20548;-81
2022/01/10 14:33:56;;;;;;;6.18;2.35;;;21.20;52.00;;;;;;4933944;29;20028;-81
2022/01/10 14:36:22;;;;;;;5.28;2.45;;;21.20;52.10;;;;;;4917719;29;20510;-81
2022/01/10 14:38:48;;;;;;;8.15;2.97;;;21.20;52.20;;;;;;4934703;29;20114;-81
2022/01/10 14:41:14;;;;;;;6.63;2.47;;;21.20;52.40;;;;;;4934066;29;20119;-81
2022/01/10 14:43:41;;;;;;;7.10;2.67;;;21.20;52.40;;;;;;4933405;29;20373;-81
2022/01/10 14:46:08;;;;;;;6.13;2.83;;;21.20;52.60;;;;;;4934877;29;20032;-80
2022/01/10 14:48:34;;;;;;;6.00;2.78;;;21.20;52.60;;;;;;4934788;29;20476;-80
2022/01/10 14:51:06;;;;;;;7.80;3.15;;;21.20;52.70;;;;;;4917744;29;20745;-80
2022/01/10 14:53:36;;;;;;;5.35;2.63;;;21.20;52.80;;;;;;4934781;29;20094;-80
2022/01/10 14:56:03;;;;;;;5.25;2.83;;;21.20;52.90;;;;;;4933517;29;20600;-81
2022/01/10 14:58:29;;;;;;;6.57;3.00;;;21.20;52.70;;;;;;4933473;29;20047;-81
2022/01/10 15:00:55;;;;;;;7.72;3.25;;;21.20;52.90;;;;;;4933253;29;20551;-81
2022/01/10 15:03:21;;;;;;;7.18;3.50;;;21.20;52.90;;;;;;4932900;29;20046;-78
2022/01/10 15:05:48;;;;;;;9.40;4.05;;;21.20;53.40;;;;;;4934534;29;20023;-80
2022/01/10 15:08:18;;;;;;;8.93;4.70;;;21.20;53.70;;;;;;4933231;29;20122;-75
2022/01/10 15:10:45;;;;;;;8.57;4.57;;;21.10;53.90;;;;;;4934058;29;20367;-75
2022/01/10 15:13:11;;;;;;;12.05;4.90;;;21.20;53.90;;;;;;4938089;29;20221;-75
2022/01/10 15:15:38;;;;;;;8.70;4.85;;;21.20;53.90;;;;;;4932958;29;20024;-76
2022/01/10 15:18:04;;;;;;;13.43;5.03;;;21.20;54.00;;;;;;4934109;29;20070;-75
2022/01/10 15:20:30;;;;;;;10.23;5.18;;;21.20;54.30;;;;;;4947856;29;20106;-75
2022/01/10 15:22:56;;;;;;;13.52;5.25;;;21.20;54.50;;;;;;4952091;29;20484;-75
2022/01/10 15:25:21;;;;;;;10.73;5.18;;;21.30;54.80;;;;;;4953210;28;20054;-74
2022/01/10 15:27:47;;;;;;;10.45;5.20;;;21.30;55.00;;;;;;4953441;28;20504;-75
2022/01/10 15:30:13;;;;;;;10.80;5.45;;;21.30;55.20;;;;;;4951911;29;20038;-75
2022/01/10 15:32:39;;;;;;;11.80;5.70;;;21.30;55.10;;;;;;4953565;28;20023;-75
2022/01/10 15:35:07;;;;;;;11.32;5.35;;;21.30;55.90;;;;;;4953477;28;20460;-74
2022/01/10 15:37:34;;;;;;;10.60;5.30;;;21.30;55.40;;;;;;4953161;28;20511;-74
2022/01/10 15:39:59;;;;;;;10.82;5.28;;;21.30;55.40;;;;;;4953041;28;20033;-74
2022/01/10 15:42:25;;;;;;;13.45;6.25;;;21.30;55.60;;;;;;4953814;28;20027;-75
2022/01/10 15:44:53;;;;;;;12.18;5.72;;;21.30;55.30;;;;;;4957024;28;20475;-75
2022/01/10 15:47:20;;;;;;;11.40;5.70;;;21.30;55.70;;;;;;4955829;29;20795;-75
2022/01/10 15:49:46;;;;;;;10.77;5.45;;;21.30;55.80;;;;;;4956843;28;20030;-75
2022/01/10 15:52:15;;;;;;;9.35;5.57;;;21.30;55.80;;;;;;4957107;28;20394;-75
2022/01/10 15:54:42;;;;;;;9.90;5.30;;;21.30;55.70;;;;;;4956683;28;20111;-75
2022/01/10 15:57:08;;;;;;;11.90;5.88;;;21.30;56.00;;;;;;4956917;28;20039;-76
2022/01/10 15:59:34;;;;;;;13.68;6.00;;;21.30;56.00;;;;;;4955609;29;20500;-75
2022/01/10 16:02:01;;;;;;;11.13;5.80;;;21.30;57.10;;;;;;4957010;28;20059;-74
2022/01/10 16:04:26;;;;;;;25.25;18.30;;;21.30;56.50;;;;;;4956481;29;20030;-71
2022/01/10 16:06:52;;;;;;;45.08;31.88;;;21.10;56.40;;;;;;4956670;28;20027;-75
2022/01/10 16:09:18;;;;;;;39.95;25.48;;;20.90;54.50;;;;;;4956426;28;20488;-75
2022/01/10 16:11:47;;;;;;;40.80;30.30;;;20.90;56.20;;;;;;4956652;28;20082;-74
2022/01/10 16:14:13;;;;;;;49.55;36.00;;;20.90;55.60;;;;;;4956459;28;20081;-73
2022/01/10 16:16:39;;;;;;;50.58;37.70;;;20.90;54.60;;;;;;4955835;29;20102;-75
2022/01/10 16:19:05;;;;;;;51.63;36.08;;;21.00;54.20;;;;;;4956210;28;20502;-74
2022/01/10 16:21:31;;;;;;;46.10;34.13;;;21.00;54.50;;;;;;4955263;29;20069;-75
2022/01/10 16:23:57;;;;;;;49.90;34.28;;;21.00;54.90;;;;;;4956091;28;20038;-74
2022/01/10 16:26:23;;;;;;;45.47;32.42;;;21.00;55.30;;;;;;4956215;28;20027;-74
2022/01/10 16:28:48;;;;;;;44.20;31.92;;;21.10;55.90;;;;;;4956105;28;20031;-74
2022/01/10 16:31:14;;;;;;;45.42;32.15;;;21.10;56.50;;;;;;4956592;28;20435;-74
2022/01/10 16:33:40;;;;;;;48.35;32.03;;;21.10;56.80;;;;;;4956303;28;20118;-75
2022/01/10 16:36:10;;;;;;;45.13;30.85;;;21.10;57.00;;;;;;4956026;28;20522;-74
2022/01/10 16:38:36;;;;;;;44.42;31.42;;;21.10;57.30;;;;;;4956425;28;20684;-74
2022/01/10 16:41:02;;;;;;;40.55;29.92;;;21.10;57.60;;;;;;4954929;29;20112;-74